Airport View

Enter AWOS ICAO identifier for current METAR.

ex. KFNL

KFNL 181256Z AUTO 09003KT 10SM CLR M01/M08 A2998 RMK AO2 SLP149 T10111083 FZRANO PNO $

18 Dec 2018 13:24

Frequency: 135.075

Phone: 970-669-9187

Other Area AWOS: KGXY - KLMO - KEIK - KBDU

TAF KBJC 181140Z 1812/1912 02006KT P6SM FEW110 SCT220 FM181600 15005KT P6SM SCT220 FM182200 27011G18KT P6SM FEW130 SCT250 FM190400 25010KT P6SM SCT120 BKN200 FM190800 28015G22KT P6SM SCT080 BKN150